sensor_id;sensor_type;location;lat;lon;timestamp;pressure;altitude;pressure_sealevel;temperature;humidity
52745;BME280;38637;49.984;20.426;2023-12-07T00:02:17;99322.75;;;-3.46;100.00
52745;BME280;38637;49.984;20.426;2023-12-07T00:04:42;99322.94;;;-3.48;100.00
52745;BME280;38637;49.984;20.426;2023-12-07T00:07:07;99327.47;;;-3.48;100.00
52745;BME280;38637;49.984;20.426;2023-12-07T00:09:33;99320.44;;;-3.49;100.00
52745;BME280;38637;49.984;20.426;2023-12-07T00:11:59;99328.63;;;-3.51;100.00
52745;BME280;38637;49.984;20.426;2023-12-07T00:14:24;99328.44;;;-3.49;100.00
52745;BME280;38637;49.984;20.426;2023-12-07T00:16:49;99334.47;;;-3.47;100.00
52745;BME280;38637;49.984;20.426;2023-12-07T00:19:15;99341.28;;;-3.44;100.00
52745;BME280;38637;49.984;20.426;2023-12-07T00:21:40;99330.44;;;-3.43;100.00
52745;BME280;38637;49.984;20.426;2023-12-07T00:24:06;99334.78;;;-3.42;100.00
52745;BME280;38637;49.984;20.426;2023-12-07T00:26:31;99325.09;;;-3.43;100.00
52745;BME280;38637;49.984;20.426;2023-12-07T00:28:56;99331.44;;;-3.44;100.00
52745;BME280;38637;49.984;20.426;2023-12-07T00:31:22;99329.78;;;-3.45;100.00
52745;BME280;38637;49.984;20.426;2023-12-07T00:33:47;99327.13;;;-3.45;100.00
52745;BME280;38637;49.984;20.426;2023-12-07T00:36:13;99335.28;;;-3.47;100.00
52745;BME280;38637;49.984;20.426;2023-12-07T00:38:38;99328.09;;;-3.46;100.00
52745;BME280;38637;49.984;20.426;2023-12-07T00:41:04;99330.78;;;-3.46;100.00
52745;BME280;38637;49.984;20.426;2023-12-07T00:43:29;99321.44;;;-3.42;100.00
52745;BME280;38637;49.984;20.426;2023-12-07T00:45:55;99323.91;;;-3.40;100.00
52745;BME280;38637;49.984;20.426;2023-12-07T00:48:20;99331.63;;;-3.45;100.00
52745;BME280;38637;49.984;20.426;2023-12-07T00:50:46;99327.47;;;-3.48;100.00
52745;BME280;38637;49.984;20.426;2023-12-07T00:53:12;99333.78;;;-3.49;100.00
52745;BME280;38637;49.984;20.426;2023-12-07T00:55:38;99334.81;;;-3.50;100.00
52745;BME280;38637;49.984;20.426;2023-12-07T00:58:05;99334.81;;;-3.50;100.00
52745;BME280;38637;49.984;20.426;2023-12-07T01:00:30;99329.66;;;-3.52;100.00
52745;BME280;38637;49.984;20.426;2023-12-07T01:02:56;99333.31;;;-3.53;100.00
52745;BME280;38637;49.984;20.426;2023-12-07T01:05:21;99328.78;;;-3.52;100.00
52745;BME280;38637;49.984;20.426;2023-12-07T01:07:46;99327.81;;;-3.51;100.00
52745;BME280;38637;49.984;20.426;2023-12-07T01:10:12;99327.63;;;-3.50;100.00
52745;BME280;38637;49.984;20.426;2023-12-07T01:12:37;99335.81;;;-3.51;100.00
52745;BME280;38637;49.984;20.426;2023-12-07T01:15:03;99315.31;;;-3.59;100.00
52745;BME280;38637;49.984;20.426;2023-12-07T01:17:29;99336.16;;;-3.54;100.00
52745;BME280;38637;49.984;20.426;2023-12-07T01:19:54;99332.47;;;-3.53;100.00
52745;BME280;38637;49.984;20.426;2023-12-07T01:22:20;99336.81;;;-3.52;100.00
52745;BME280;38637;49.984;20.426;2023-12-07T01:24:45;99335.63;;;-3.50;100.00
52745;BME280;38637;49.984;20.426;2023-12-07T01:27:11;99337.13;;;-3.47;100.00
52745;BME280;38637;49.984;20.426;2023-12-07T01:29:36;99324.78;;;-3.48;100.00
52745;BME280;38637;49.984;20.426;2023-12-07T01:32:02;99343.63;;;-3.41;100.00
52745;BME280;38637;49.984;20.426;2023-12-07T01:34:27;99337.94;;;-3.38;100.00
52745;BME280;38637;49.984;20.426;2023-12-07T01:36:53;99339.44;;;-3.36;100.00
52745;BME280;38637;49.984;20.426;2023-12-07T01:39:18;99335.75;;;-3.35;100.00
52745;BME280;38637;49.984;20.426;2023-12-07T01:41:44;99325.94;;;-3.42;100.00
52745;BME280;38637;49.984;20.426;2023-12-07T01:44:10;99338.06;;;-3.32;100.00
52745;BME280;38637;49.984;20.426;2023-12-07T01:46:35;99325.19;;;-3.28;100.00
52745;BME280;38637;49.984;20.426;2023-12-07T01:49:02;99330.06;;;-3.32;100.00
52745;BME280;38637;49.984;20.426;2023-12-07T01:51:27;99329.03;;;-3.31;100.00
52745;BME280;38637;49.984;20.426;2023-12-07T01:53:54;99332.38;;;-3.29;100.00
52745;BME280;38637;49.984;20.426;2023-12-07T01:56:20;99331.56;;;-3.29;100.00
52745;BME280;38637;49.984;20.426;2023-12-07T01:58:46;99324.22;;;-3.27;100.00
52745;BME280;38637;49.984;20.426;2023-12-07T02:01:11;99325.19;;;-3.28;100.00
52745;BME280;38637;49.984;20.426;2023-12-07T02:03:40;99324.84;;;-3.25;100.00
52745;BME280;38637;49.984;20.426;2023-12-07T02:06:06;99322.84;;;-3.23;100.00
52745;BME280;38637;49.984;20.426;2023-12-07T02:08:31;99317.50;;;-3.23;100.00
52745;BME280;38637;49.984;20.426;2023-12-07T02:10:57;99326.19;;;-3.21;100.00
52745;BME280;38637;49.984;20.426;2023-12-07T02:13:23;99316.50;;;-3.22;100.00
52745;BME280;38637;49.984;20.426;2023-12-07T02:15:48;99322.84;;;-3.23;100.00
52745;BME280;38637;49.984;20.426;2023-12-07T02:23:23;99329.50;;;-3.19;100.00
52745;BME280;38637;49.984;20.426;2023-12-07T02:29:10;99324.81;;;-3.17;100.00
52745;BME280;38637;49.984;20.426;2023-12-07T02:31:36;99322.31;;;-3.18;100.00
52745;BME280;38637;49.984;20.426;2023-12-07T02:34:01;99326.53;;;-3.24;100.00
52745;BME280;38637;49.984;20.426;2023-12-07T02:36:28;99316.38;;;-3.29;100.00
52745;BME280;38637;49.984;20.426;2023-12-07T02:39:01;99307.25;;;-3.42;100.00
52745;BME280;38637;49.984;20.426;2023-12-07T02:41:30;99322.75;;;-3.38;100.00
52745;BME280;38637;49.984;20.426;2023-12-07T02:43:57;99328.28;;;-3.39;100.00
52745;BME280;38637;49.984;20.426;2023-12-07T02:46:23;99327.72;;;-3.35;100.00
52745;BME280;38637;49.984;20.426;2023-12-07T02:48:49;99331.06;;;-3.33;100.00
52745;BME280;38637;49.984;20.426;2023-12-07T02:51:15;99319.38;;;-3.32;100.00
52745;BME280;38637;49.984;20.426;2023-12-07T02:53:40;99332.41;;;-3.37;100.00
52745;BME280;38637;49.984;20.426;2023-12-07T02:56:06;99332.94;;;-3.41;100.00
52745;BME280;38637;49.984;20.426;2023-12-07T02:58:32;99336.63;;;-3.42;100.00
52745;BME280;38637;49.984;20.426;2023-12-07T03:00:57;99332.47;;;-3.45;100.00
52745;BME280;38637;49.984;20.426;2023-12-07T03:03:22;99336.09;;;-3.46;100.00
52745;BME280;38637;49.984;20.426;2023-12-07T03:05:48;99331.13;;;-3.49;100.00
52745;BME280;38637;49.984;20.426;2023-12-07T03:08:13;99335.16;;;-3.53;100.00
52745;BME280;38637;49.984;20.426;2023-12-07T03:10:39;99342.31;;;-3.54;100.00
52745;BME280;38637;49.984;20.426;2023-12-07T03:13:04;99336.81;;;-3.52;100.00
52745;BME280;38637;49.984;20.426;2023-12-07T03:15:30;99346.97;;;-3.48;100.00
52745;BME280;38637;49.984;20.426;2023-12-07T03:17:55;99348.47;;;-3.45;100.00
52745;BME280;38637;49.984;20.426;2023-12-07T03:20:20;99361.63;;;-3.43;100.00
52745;BME280;38637;49.984;20.426;2023-12-07T03:22:46;99354.28;;;-3.41;100.00
52745;BME280;38637;49.984;20.426;2023-12-07T03:25:11;99354.78;;;-3.38;100.00
52745;BME280;38637;49.984;20.426;2023-12-07T03:27:37;99356.44;;;-3.37;100.00
52745;BME280;38637;49.984;20.426;2023-12-07T03:30:03;99360.78;;;-3.36;100.00
52745;BME280;38637;49.984;20.426;2023-12-07T03:32:28;99360.78;;;-3.36;100.00
52745;BME280;38637;49.984;20.426;2023-12-07T03:34:54;99366.13;;;-3.36;100.00
52745;BME280;38637;49.984;20.426;2023-12-07T03:37:19;99361.97;;;-3.38;100.00
52745;BME280;38637;49.984;20.426;2023-12-07T03:39:45;99357.44;;;-3.38;100.00
52745;BME280;38637;49.984;20.426;2023-12-07T03:42:10;99360.94;;;-3.37;100.00
52745;BME280;38637;49.984;20.426;2023-12-07T03:44:35;99361.44;;;-3.34;100.00
52745;BME280;38637;49.984;20.426;2023-12-07T03:47:01;99352.94;;;-3.37;100.00
52745;BME280;38637;49.984;20.426;2023-12-07T03:49:27;99356.09;;;-3.34;100.00
52745;BME280;38637;49.984;20.426;2023-12-07T03:51:52;99364.78;;;-3.32;100.00
52745;BME280;38637;49.984;20.426;2023-12-07T03:54:17;99368.44;;;-3.33;100.00
52745;BME280;38637;49.984;20.426;2023-12-07T03:56:44;99369.28;;;-3.32;100.00
52745;BME280;38637;49.984;20.426;2023-12-07T03:59:09;99371.75;;;-3.31;100.00
52745;BME280;38637;49.984;20.426;2023-12-07T04:01:35;99374.44;;;-3.31;100.00
52745;BME280;38637;49.984;20.426;2023-12-07T04:04:00;99370.78;;;-3.30;100.00
52745;BME280;38637;49.984;20.426;2023-12-07T04:06:26;99372.63;;;-3.30;100.00
52745;BME280;38637;49.984;20.426;2023-12-07T04:08:52;99361.97;;;-3.38;100.00
52745;BME280;38637;49.984;20.426;2023-12-07T04:11:18;99370.59;;;-3.28;100.00
52745;BME280;38637;49.984;20.426;2023-12-07T04:13:44;99376.75;;;-3.28;100.00
52745;BME280;38637;49.984;20.426;2023-12-07T04:16:10;99383.44;;;-3.24;100.00
52745;BME280;38637;49.984;20.426;2023-12-07T04:18:36;99374.06;;;-3.19;100.00
52745;BME280;38637;49.984;20.426;2023-12-07T04:21:02;99379.06;;;-3.16;100.00
52745;BME280;38637;49.984;20.426;2023-12-07T04:23:28;99376.03;;;-3.13;100.00
52745;BME280;38637;49.984;20.426;2023-12-07T04:25:53;99373.84;;;-3.10;100.00
52745;BME280;38637;49.984;20.426;2023-12-07T04:28:18;99382.53;;;-3.08;100.00
52745;BME280;38637;49.984;20.426;2023-12-07T04:30:44;99375.53;;;-3.09;100.00
52745;BME280;38637;49.984;20.426;2023-12-07T04:33:09;99381.72;;;-3.08;100.00
52745;BME280;38637;49.984;20.426;2023-12-07T04:35:35;99374.19;;;-3.05;100.00
52745;BME280;38637;49.984;20.426;2023-12-07T04:38:00;99376.66;;;-3.03;100.00
52745;BME280;38637;49.984;20.426;2023-12-07T04:40:26;99380.19;;;-3.03;100.00
52745;BME280;38637;49.984;20.426;2023-12-07T04:42:52;99382.66;;;-3.01;100.00
52745;BME280;38637;49.984;20.426;2023-12-07T04:45:17;99383.16;;;-2.97;100.00
52745;BME280;38637;49.984;20.426;2023-12-07T04:47:43;99395.69;;;-2.98;100.00
52745;BME280;38637;49.984;20.426;2023-12-07T04:50:09;99395.69;;;-2.98;100.00
52745;BME280;38637;49.984;20.426;2023-12-07T04:52:37;99385.34;;;-3.01;100.00
52745;BME280;38637;49.984;20.426;2023-12-07T04:55:02;99392.84;;;-2.96;100.00
52745;BME280;38637;49.984;20.426;2023-12-07T04:57:28;99391.16;;;-2.97;100.00
52745;BME280;38637;49.984;20.426;2023-12-07T04:59:53;99395.53;;;-2.96;100.00
52745;BME280;38637;49.984;20.426;2023-12-07T05:02:19;99403.69;;;-2.98;100.00
52745;BME280;38637;49.984;20.426;2023-12-07T05:04:45;99406.38;;;-2.98;100.00
52745;BME280;38637;49.984;20.426;2023-12-07T05:07:13;99399.03;;;-2.96;100.00
52745;BME280;38637;49.984;20.426;2023-12-07T05:09:39;99404.16;;;-2.94;100.00
52745;BME280;38637;49.984;20.426;2023-12-07T05:12:05;99409.34;;;-2.93;100.00
52745;BME280;38637;49.984;20.426;2023-12-07T05:14:32;99403.19;;;-2.93;100.00
52745;BME280;38637;49.984;20.426;2023-12-07T05:16:57;99399.31;;;-2.91;100.00
52745;BME280;38637;49.984;20.426;2023-12-07T05:19:23;99385.81;;;-2.97;100.00
52745;BME280;38637;49.984;20.426;2023-12-07T05:21:49;99406.34;;;-2.90;100.00
52745;BME280;38637;49.984;20.426;2023-12-07T05:24:15;99411.50;;;-2.88;100.00
52745;BME280;38637;49.984;20.426;2023-12-07T05:26:41;99406.34;;;-2.90;100.00
52745;BME280;38637;49.984;20.426;2023-12-07T05:29:07;99410.50;;;-2.87;100.00
52745;BME280;38637;49.984;20.426;2023-12-07T05:31:32;99417.03;;;-2.90;100.00
52745;BME280;38637;49.984;20.426;2023-12-07T05:33:58;99413.34;;;-2.89;100.00
52745;BME280;38637;49.984;20.426;2023-12-07T05:36:23;99411.13;;;-2.85;100.00
52745;BME280;38637;49.984;20.426;2023-12-07T05:38:49;99417.31;;;-2.85;100.00
52745;BME280;38637;49.984;20.426;2023-12-07T05:41:14;99418.16;;;-2.84;100.00
52745;BME280;38637;49.984;20.426;2023-12-07T05:43:43;99415.31;;;-2.83;100.00
52745;BME280;38637;49.984;20.426;2023-12-07T05:46:08;99401.81;;;-2.89;100.00
52745;BME280;38637;49.984;20.426;2023-12-07T05:48:34;99417.97;;;-2.83;100.00
52745;BME280;38637;49.984;20.426;2023-12-07T05:51:01;99422.31;;;-2.82;100.00
52745;BME280;38637;49.984;20.426;2023-12-07T05:53:27;99421.31;;;-2.81;100.00
52745;BME280;38637;49.984;20.426;2023-12-07T05:55:52;99429.34;;;-2.81;100.00
52745;BME280;38637;49.984;20.426;2023-12-07T05:58:17;99424.97;;;-2.82;100.00
52745;BME280;38637;49.984;20.426;2023-12-07T06:00:43;99433.00;;;-2.82;100.00
52745;BME280;38637;49.984;20.426;2023-12-07T06:03:12;99429.00;;;-2.86;100.00
52745;BME280;38637;49.984;20.426;2023-12-07T06:05:38;99430.03;;;-2.87;100.00
52745;BME280;38637;49.984;20.426;2023-12-07T06:08:04;99433.34;;;-2.85;100.00
52745;BME280;38637;49.984;20.426;2023-12-07T06:10:30;99429.69;;;-2.84;100.00
52745;BME280;38637;49.984;20.426;2023-12-07T06:12:55;99440.38;;;-2.84;100.00
52745;BME280;38637;49.984;20.426;2023-12-07T06:15:22;99442.03;;;-2.83;100.00
52745;BME280;38637;49.984;20.426;2023-12-07T06:17:47;99446.34;;;-2.82;100.00
52745;BME280;38637;49.984;20.426;2023-12-07T06:20:13;99455.88;;;-2.79;100.00
52745;BME280;38637;49.984;20.426;2023-12-07T06:22:39;99452.56;;;-2.81;100.00
52745;BME280;38637;49.984;20.426;2023-12-07T06:25:04;99457.22;;;-2.75;100.00
52745;BME280;38637;49.984;20.426;2023-12-07T06:27:30;99454.53;;;-2.75;100.00
52745;BME280;38637;49.984;20.426;2023-12-07T06:29:55;99455.19;;;-2.73;100.00
52745;BME280;38637;49.984;20.426;2023-12-07T06:32:21;99455.03;;;-2.71;100.00
52745;BME280;38637;49.984;20.426;2023-12-07T06:34:46;99460.00;;;-2.68;100.00
52745;BME280;38637;49.984;20.426;2023-12-07T06:37:12;99462.69;;;-2.68;100.00
52745;BME280;38637;49.984;20.426;2023-12-07T06:39:38;99463.31;;;-2.66;100.00
52745;BME280;38637;49.984;20.426;2023-12-07T06:42:04;99456.66;;;-2.62;100.00
52745;BME280;38637;49.984;20.426;2023-12-07T06:44:29;99466.31;;;-2.61;100.00
52745;BME280;38637;49.984;20.426;2023-12-07T06:46:55;99466.78;;;-2.58;100.00
52745;BME280;38637;49.984;20.426;2023-12-07T06:49:20;99475.31;;;-2.54;100.00
52745;BME280;38637;49.984;20.426;2023-12-07T06:51:45;99481.78;;;-2.48;100.00
52745;BME280;38637;49.984;20.426;2023-12-07T06:54:11;99479.78;;;-2.46;100.00
52745;BME280;38637;49.984;20.426;2023-12-07T06:56:36;99480.09;;;-2.41;100.00
52745;BME280;38637;49.984;20.426;2023-12-07T06:59:02;99478.94;;;-2.39;100.00
52745;BME280;38637;49.984;20.426;2023-12-07T07:01:27;99480.22;;;-2.35;100.00
52745;BME280;38637;49.984;20.426;2023-12-07T07:03:52;99475.00;;;-2.28;100.00
52745;BME280;38637;49.984;20.426;2023-12-07T07:06:18;99495.22;;;-2.25;100.00
52745;BME280;38637;49.984;20.426;2023-12-07T07:08:43;99482.31;;;-2.22;100.00
52745;BME280;38637;49.984;20.426;2023-12-07T07:11:12;99487.78;;;-2.15;100.00
52745;BME280;38637;49.984;20.426;2023-12-07T07:13:39;99487.28;;;-2.11;100.00
52745;BME280;38637;49.984;20.426;2023-12-07T07:16:04;99484.72;;;-2.04;100.00
52745;BME280;38637;49.984;20.426;2023-12-07T07:18:30;99483.53;;;-2.01;100.00
52745;BME280;38637;49.984;20.426;2023-12-07T07:20:55;99480.16;;;-1.95;100.00
52745;BME280;38637;49.984;20.426;2023-12-07T07:23:21;99480.06;;;-1.87;100.00
52745;BME280;38637;49.984;20.426;2023-12-07T07:25:46;99480.94;;;-1.87;100.00
52745;BME280;38637;49.984;20.426;2023-12-07T07:28:11;99490.91;;;-1.80;100.00
52745;BME280;38637;49.984;20.426;2023-12-07T07:30:37;99496.91;;;-1.78;100.00
52745;BME280;38637;49.984;20.426;2023-12-07T07:33:03;99493.88;;;-1.75;100.00
52745;BME280;38637;49.984;20.426;2023-12-07T07:35:29;99498.88;;;-1.72;100.00
52745;BME280;38637;49.984;20.426;2023-12-07T07:37:55;99493.34;;;-1.71;100.00
52745;BME280;38637;49.984;20.426;2023-12-07T07:40:20;99502.88;;;-1.68;100.00
52745;BME280;38637;49.984;20.426;2023-12-07T07:42:46;99503.50;;;-1.66;100.00
52745;BME280;38637;49.984;20.426;2023-12-07T07:45:11;99512.38;;;-1.66;100.00
52745;BME280;38637;49.984;20.426;2023-12-07T07:47:37;99515.91;;;-1.65;100.00
52745;BME280;38637;49.984;20.426;2023-12-07T07:50:02;99519.41;;;-1.65;100.00
52745;BME280;38637;49.984;20.426;2023-12-07T07:52:34;99509.56;;;-1.72;100.00
52745;BME280;38637;49.984;20.426;2023-12-07T07:55:02;99516.53;;;-1.63;100.00
52745;BME280;38637;49.984;20.426;2023-12-07T07:57:28;99495.84;;;-1.69;100.00
52745;BME280;38637;49.984;20.426;2023-12-07T07:59:54;99519.88;;;-1.61;100.00
52745;BME280;38637;49.984;20.426;2023-12-07T08:02:21;99514.31;;;-1.59;100.00
52745;BME280;38637;49.984;20.426;2023-12-07T08:04:47;99523.50;;;-1.54;100.00
52745;BME280;38637;49.984;20.426;2023-12-07T08:07:12;99519.97;;;-1.54;100.00
52745;BME280;38637;49.984;20.426;2023-12-07T08:09:37;99523.50;;;-1.54;100.00
52745;BME280;38637;49.984;20.426;2023-12-07T08:12:03;99534.03;;;-1.52;100.00
52745;BME280;38637;49.984;20.426;2023-12-07T08:14:29;99525.44;;;-1.48;100.00
52745;BME280;38637;49.984;20.426;2023-12-07T08:16:54;99532.75;;;-1.42;100.00
52745;BME280;38637;49.984;20.426;2023-12-07T08:19:21;99531.88;;;-1.34;100.00
52745;BME280;38637;49.984;20.426;2023-12-07T08:21:46;99528.28;;;-1.26;100.00
52745;BME280;38637;49.984;20.426;2023-12-07T08:24:12;99538.94;;;-1.18;100.00
52745;BME280;38637;49.984;20.426;2023-12-07T08:26:38;99540.50;;;-1.09;100.00
52745;BME280;38637;49.984;20.426;2023-12-07T08:29:04;99541.06;;;-0.99;100.00
52745;BME280;38637;49.984;20.426;2023-12-07T08:31:30;99549.69;;;-0.88;100.00
52745;BME280;38637;49.984;20.426;2023-12-07T08:33:56;99540.81;;;-0.89;99.99
52745;BME280;38637;49.984;20.426;2023-12-07T08:36:21;99543.31;;;-0.73;99.24
52745;BME280;38637;49.984;20.426;2023-12-07T08:38:47;99548.88;;;-0.59;98.86
52745;BME280;38637;49.984;20.426;2023-12-07T08:41:12;99553.22;;;-0.43;99.26
52745;BME280;38637;49.984;20.426;2023-12-07T08:43:37;99552.09;;;-0.34;98.34
52745;BME280;38637;49.984;20.426;2023-12-07T08:46:03;99558.19;;;-0.26;98.25
52745;BME280;38637;49.984;20.426;2023-12-07T08:48:30;99551.69;;;-0.16;97.92
52745;BME280;38637;49.984;20.426;2023-12-07T08:50:55;99560.66;;;-0.09;97.46
52745;BME280;38637;49.984;20.426;2023-12-07T08:53:20;99560.09;;;-0.05;97.19
52745;BME280;38637;49.984;20.426;2023-12-07T08:55:46;99561.75;;;-0.04;96.72
52745;BME280;38637;49.984;20.426;2023-12-07T08:58:11;99558.25;;;-0.04;96.12
52745;BME280;38637;49.984;20.426;2023-12-07T09:00:37;99560.75;;;-0.03;95.75
52745;BME280;38637;49.984;20.426;2023-12-07T09:03:03;99556.22;;;-0.02;95.34
52745;BME280;38637;49.984;20.426;2023-12-07T09:05:29;99555.19;;;-0.01;95.29
52745;BME280;38637;49.984;20.426;2023-12-07T09:07:55;99561.00;;;0.03;95.21
52745;BME280;38637;49.984;20.426;2023-12-07T09:10:22;99558.91;;;-0.02;94.98
52745;BME280;38637;49.984;20.426;2023-12-07T09:12:47;99555.94;;;-0.07;94.53
52745;BME280;38637;49.984;20.426;2023-12-07T09:15:13;99557.97;;;-0.09;95.02
52745;BME280;38637;49.984;20.426;2023-12-07T09:17:39;99552.81;;;-0.11;94.80
52745;BME280;38637;49.984;20.426;2023-12-07T09:20:09;99557.78;;;-0.08;95.38
52745;BME280;38637;49.984;20.426;2023-12-07T09:22:47;99550.03;;;-0.03;95.27
52745;BME280;38637;49.984;20.426;2023-12-07T09:25:15;99554.53;;;-0.03;95.22
52745;BME280;38637;49.984;20.426;2023-12-07T09:27:40;99553.16;;;0.01;95.20
52745;BME280;38637;49.984;20.426;2023-12-07T09:30:10;99557.94;;;0.06;95.15
52745;BME280;38637;49.984;20.426;2023-12-07T09:32:42;99559.69;;;0.13;94.86
52745;BME280;38637;49.984;20.426;2023-12-07T09:35:09;99555.53;;;0.11;94.27
52745;BME280;38637;49.984;20.426;2023-12-07T09:37:44;99552.03;;;0.10;94.59
52745;BME280;38637;49.984;20.426;2023-12-07T09:40:20;99550.00;;;0.12;94.45
52745;BME280;38637;49.984;20.426;2023-12-07T09:42:46;99555.53;;;0.11;93.87
52745;BME280;38637;49.984;20.426;2023-12-07T09:45:13;99547.94;;;0.14;94.08
52745;BME280;38637;49.984;20.426;2023-12-07T09:47:43;99544.69;;;0.19;93.92
52745;BME280;38637;49.984;20.426;2023-12-07T09:50:15;99545.19;;;0.29;93.84
52745;BME280;38637;49.984;20.426;2023-12-07T09:52:42;99548.59;;;0.38;93.64
52745;BME280;38637;49.984;20.426;2023-12-07T09:55:07;99538.63;;;0.32;93.61
52745;BME280;38637;49.984;20.426;2023-12-07T09:57:33;99548.59;;;0.38;92.90
52745;BME280;38637;49.984;20.426;2023-12-07T09:59:59;99548.28;;;0.48;93.04
52745;BME280;38637;49.984;20.426;2023-12-07T10:02:25;99550.25;;;0.60;93.04
52745;BME280;38637;49.984;20.426;2023-12-07T10:05:09;99546.59;;;0.68;92.83
52745;BME280;38637;49.984;20.426;2023-12-07T10:07:39;99550.19;;;0.75;92.06
52745;BME280;38637;49.984;20.426;2023-12-07T10:10:05;99556.44;;;0.82;91.02
52745;BME280;38637;49.984;20.426;2023-12-07T10:12:31;99548.88;;;0.93;91.03
52745;BME280;38637;49.984;20.426;2023-12-07T10:15:00;99548.72;;;1.01;90.89
52745;BME280;38637;49.984;20.426;2023-12-07T10:17:45;99547.53;;;1.10;90.32
52745;BME280;38637;49.984;20.426;2023-12-07T10:20:14;99541.38;;;1.16;90.10
52745;BME280;38637;49.984;20.426;2023-12-07T10:22:40;99544.00;;;1.37;89.97
52745;BME280;38637;49.984;20.426;2023-12-07T10:25:05;99536.81;;;1.45;89.31
52745;BME280;38637;49.984;20.426;2023-12-07T10:27:31;99528.75;;;1.45;89.06
52745;BME280;38637;49.984;20.426;2023-12-07T10:29:58;99548.47;;;1.58;88.62
52745;BME280;38637;49.984;20.426;2023-12-07T10:32:24;99538.59;;;1.66;88.85
52745;BME280;38637;49.984;20.426;2023-12-07T10:34:50;99534.84;;;1.60;87.55
52745;BME280;38637;49.984;20.426;2023-12-07T10:37:15;99540.81;;;1.62;87.83
52745;BME280;38637;49.984;20.426;2023-12-07T10:39:41;99538.13;;;1.62;88.00
52745;BME280;38637;49.984;20.426;2023-12-07T10:42:09;99546.75;;;1.44;87.14
52745;BME280;38637;49.984;20.426;2023-12-07T10:44:41;99551.69;;;1.41;87.60
52745;BME280;38637;49.984;20.426;2023-12-07T10:47:08;99552.72;;;1.40;88.27
52745;BME280;38637;49.984;20.426;2023-12-07T10:49:36;99544.78;;;1.31;88.70
52745;BME280;38637;49.984;20.426;2023-12-07T10:52:07;99546.75;;;1.16;88.68
52745;BME280;38637;49.984;20.426;2023-12-07T10:54:41;99553.56;;;1.12;89.40
52745;BME280;38637;49.984;20.426;2023-12-07T10:57:11;99548.16;;;1.05;89.71
52745;BME280;38637;49.984;20.426;2023-12-07T10:59:41;99554.75;;;1.03;90.05
52745;BME280;38637;49.984;20.426;2023-12-07T11:02:09;99551.88;;;1.04;90.01
52745;BME280;38637;49.984;20.426;2023-12-07T11:04:38;99554.56;;;1.04;90.21
52745;BME280;38637;49.984;20.426;2023-12-07T11:07:08;99555.19;;;1.06;90.26
52745;BME280;38637;49.984;20.426;2023-12-07T11:09:39;99547.94;;;1.07;90.56
52745;BME280;38637;49.984;20.426;2023-12-07T11:12:13;99546.53;;;1.11;90.31
52745;BME280;38637;49.984;20.426;2023-12-07T11:14:42;99547.31;;;1.05;90.29
52745;BME280;38637;49.984;20.426;2023-12-07T11:17:08;99549.19;;;1.04;90.76
52745;BME280;38637;49.984;20.426;2023-12-07T11:22:04;99535.53;;;1.06;90.61
52745;BME280;38637;49.984;20.426;2023-12-07T11:24:29;99553.19;;;1.15;90.76
52745;BME280;38637;49.984;20.426;2023-12-07T11:26:55;99549.22;;;1.11;90.54
52745;BME280;38637;49.984;20.426;2023-12-07T11:29:23;99557.72;;;1.14;91.17
52745;BME280;38637;49.984;20.426;2023-12-07T11:31:49;99556.47;;;1.10;91.03
52745;BME280;38637;49.984;20.426;2023-12-07T11:34:37;99547.53;;;1.10;91.21
52745;BME280;38637;49.984;20.426;2023-12-07T11:37:04;99552.91;;;1.10;91.16
52745;BME280;38637;49.984;20.426;2023-12-07T11:39:35;99555.44;;;1.11;91.10
52745;BME280;38637;49.984;20.426;2023-12-07T11:42:10;99554.41;;;1.12;91.48
52745;BME280;38637;49.984;20.426;2023-12-07T11:44:40;99549.44;;;1.16;91.86
52745;BME280;38637;49.984;20.426;2023-12-07T11:47:07;99548.47;;;1.24;91.73
52745;BME280;38637;49.984;20.426;2023-12-07T11:49:33;99544.97;;;1.23;91.79
52745;BME280;38637;49.984;20.426;2023-12-07T11:51:59;99552.38;;;1.21;91.73
52745;BME280;38637;49.984;20.426;2023-12-07T11:54:28;99556.94;;;1.21;91.92
52745;BME280;38637;49.984;20.426;2023-12-07T11:56:55;99551.13;;;1.17;91.87
52745;BME280;38637;49.984;20.426;2023-12-07T11:59:22;99553.59;;;1.19;92.18
52745;BME280;38637;49.984;20.426;2023-12-07T12:01:48;99555.69;;;1.17;92.52
52745;BME280;38637;49.984;20.426;2023-12-07T12:04:17;99553.38;;;1.13;92.65
52745;BME280;38637;49.984;20.426;2023-12-07T12:06:46;99552.34;;;1.14;92.88
52745;BME280;38637;49.984;20.426;2023-12-07T12:09:14;99548.19;;;1.12;92.70
52745;BME280;38637;49.984;20.426;2023-12-07T12:11:49;99559.38;;;1.15;93.33
52745;BME280;38637;49.984;20.426;2023-12-07T12:14:15;99557.13;;;1.19;92.93
52745;BME280;38637;49.984;20.426;2023-12-07T12:16:45;99562.06;;;1.15;92.96
52745;BME280;38637;49.984;20.426;2023-12-07T12:19:11;99543.81;;;1.04;93.16
52745;BME280;38637;49.984;20.426;2023-12-07T12:21:37;99561.59;;;1.05;93.27
52745;BME280;38637;49.984;20.426;2023-12-07T12:24:06;99559.47;;;1.01;93.25
52745;BME280;38637;49.984;20.426;2023-12-07T12:26:36;99567.88;;;0.91;94.37
52745;BME280;38637;49.984;20.426;2023-12-07T12:29:05;99565.78;;;0.86;94.79
52745;BME280;38637;49.984;20.426;2023-12-07T12:31:32;99548.97;;;0.78;94.93
52745;BME280;38637;49.984;20.426;2023-12-07T12:33:57;99558.94;;;0.84;95.32
52745;BME280;38637;49.984;20.426;2023-12-07T12:36:26;99568.44;;;0.80;95.35
52745;BME280;38637;49.984;20.426;2023-12-07T12:38:53;99570.41;;;0.71;95.77
52745;BME280;38637;49.984;20.426;2023-12-07T12:41:20;99560.59;;;0.63;96.51
52745;BME280;38637;49.984;20.426;2023-12-07T12:43:46;99565.38;;;0.61;96.79
52745;BME280;38637;49.984;20.426;2023-12-07T12:46:13;99566.13;;;0.55;97.00
52745;BME280;38637;49.984;20.426;2023-12-07T12:48:56;99570.03;;;0.53;97.34
52745;BME280;38637;49.984;20.426;2023-12-07T12:51:24;99571.41;;;0.49;97.23
52745;BME280;38637;49.984;20.426;2023-12-07T12:53:51;99571.63;;;0.47;97.64